createdAt,value
2022-08-21T00:00:22.502Z,17.89
2022-08-21T00:03:11.149Z,17.89
2022-08-21T00:05:41.494Z,17.85
2022-08-21T00:08:08.864Z,17.79
2022-08-21T00:10:35.479Z,17.76
2022-08-21T00:13:04.903Z,17.69
2022-08-21T00:15:33.706Z,17.69
2022-08-21T00:18:00.136Z,17.64
2022-08-21T00:20:27.092Z,17.65
2022-08-21T00:22:53.683Z,17.62
2022-08-21T00:25:24.377Z,17.63
2022-08-21T00:27:53.703Z,17.62
2022-08-21T00:30:23.268Z,17.58
2022-08-21T00:32:51.508Z,17.62
2022-08-21T00:35:20.410Z,17.56
2022-08-21T00:37:46.931Z,17.45
2022-08-21T00:40:18.416Z,17.43
2022-08-21T00:42:53.241Z,17.42
2022-08-21T00:45:22.154Z,17.41
2022-08-21T00:47:48.571Z,17.39
2022-08-21T00:50:15.050Z,17.34
2022-08-21T00:52:52.015Z,17.31
2022-08-21T00:55:20.111Z,17.38
2022-08-21T00:57:51.370Z,17.37
2022-08-21T01:00:21.897Z,17.34
2022-08-21T01:02:48.652Z,17.35
2022-08-21T01:05:15.245Z,17.36
2022-08-21T01:07:42.549Z,17.37
2022-08-21T01:10:09.834Z,17.35
2022-08-21T01:12:47.459Z,17.26
2022-08-21T01:15:15.293Z,17.22
2022-08-21T01:17:42.182Z,17.26
2022-08-21T01:20:12.115Z,17.30
2022-08-21T01:22:39.052Z,17.21
2022-08-21T01:25:08.292Z,17.17
2022-08-21T01:27:34.933Z,17.09
2022-08-21T01:30:15.619Z,17.11
2022-08-21T01:32:42.236Z,17.01
2022-08-21T01:35:09.743Z,17.07
2022-08-21T01:37:36.233Z,17.02
2022-08-21T01:40:05.087Z,16.99
2022-08-21T01:42:31.642Z,17.00
2022-08-21T01:44:58.087Z,17.01
2022-08-21T01:47:24.727Z,17.00
2022-08-21T01:49:51.332Z,16.98
2022-08-21T01:52:17.982Z,16.91
2022-08-21T01:54:44.681Z,16.88
2022-08-21T01:57:13.354Z,16.85
2022-08-21T01:59:40.200Z,16.76
2022-08-21T02:02:07.338Z,16.72
2022-08-21T02:04:34.176Z,16.72
2022-08-21T02:07:01.473Z,16.72
2022-08-21T02:09:28.585Z,16.70
2022-08-21T02:11:55.670Z,16.65
2022-08-21T02:14:30.275Z,16.64
2022-08-21T02:17:05.341Z,16.63
2022-08-21T02:19:39.678Z,16.59
2022-08-21T02:22:07.268Z,16.53
2022-08-21T02:24:34.033Z,16.56
2022-08-21T02:27:00.402Z,16.54
2022-08-21T02:29:26.836Z,16.49
2022-08-21T02:31:53.225Z,16.43
2022-08-21T02:34:19.558Z,16.46
2022-08-21T02:36:45.979Z,16.49
2022-08-21T02:39:27.387Z,16.37
2022-08-21T02:41:54.311Z,16.39
2022-08-21T02:44:21.125Z,16.33
2022-08-21T02:46:56.717Z,16.29
2022-08-21T02:49:23.620Z,16.19
2022-08-21T02:51:49.941Z,16.23
2022-08-21T02:54:16.641Z,16.23
2022-08-21T02:56:43.262Z,16.23
2022-08-21T02:59:09.620Z,16.21
2022-08-21T03:01:36.301Z,16.20
2022-08-21T03:04:03.146Z,16.19
2022-08-21T03:06:29.485Z,16.12
2022-08-21T03:08:56.486Z,16.15
2022-08-21T03:11:22.830Z,16.07
2022-08-21T03:13:49.515Z,16.10
2022-08-21T03:16:15.990Z,16.10
2022-08-21T03:18:42.322Z,16.06
2022-08-21T03:21:08.772Z,16.03
2022-08-21T03:23:35.643Z,16.05
2022-08-21T03:26:02.307Z,16.01
2022-08-21T03:28:29.244Z,15.98
2022-08-21T03:30:55.944Z,15.92
2022-08-21T03:33:23.358Z,15.95
2022-08-21T03:35:59.044Z,15.93
2022-08-21T03:38:26.717Z,15.91
2022-08-21T03:40:54.477Z,15.91
2022-08-21T03:43:21.172Z,15.86
2022-08-21T03:45:48.060Z,15.80
2022-08-21T03:48:14.757Z,15.81
2022-08-21T03:50:43.450Z,15.76
2022-08-21T03:53:16.994Z,15.76
2022-08-21T03:55:48.028Z,15.73
2022-08-21T03:58:20.124Z,15.71
2022-08-21T04:00:49.352Z,15.72
2022-08-21T04:03:16.473Z,15.68
2022-08-21T04:05:43.667Z,15.73
2022-08-21T04:08:10.123Z,15.66
2022-08-21T04:10:38.254Z,15.71
2022-08-21T04:13:06.851Z,15.67
2022-08-21T04:15:34.081Z,15.72
2022-08-21T04:18:00.943Z,15.73
2022-08-21T04:20:28.137Z,15.72
2022-08-21T04:22:55.109Z,15.69
2022-08-21T04:25:24.654Z,15.74
2022-08-21T04:27:51.085Z,15.74
2022-08-21T04:30:18.030Z,15.72
2022-08-21T04:32:50.044Z,15.72
2022-08-21T04:35:19.481Z,15.66
2022-08-21T04:37:46.172Z,15.62
2022-08-21T04:40:14.502Z,15.66
2022-08-21T04:42:47.086Z,15.67
2022-08-21T04:45:25.910Z,15.69
2022-08-21T04:47:54.781Z,15.66
2022-08-21T04:50:25.576Z,15.66
2022-08-21T04:52:52.084Z,15.66
2022-08-21T04:55:20.791Z,15.74
2022-08-21T04:57:49.274Z,15.73
2022-08-21T05:00:17.819Z,15.74
2022-08-21T05:02:44.268Z,15.78
2022-08-21T05:05:11.496Z,15.78
2022-08-21T05:07:41.957Z,15.81
2022-08-21T05:10:10.203Z,15.73
2022-08-21T05:12:39.436Z,15.86
2022-08-21T05:15:06.438Z,15.85
2022-08-21T05:17:33.601Z,15.86
2022-08-21T05:20:00.172Z,15.83
2022-08-21T05:22:26.561Z,15.85
2022-08-21T05:24:53.028Z,15.87
2022-08-21T05:27:19.429Z,15.88
2022-08-21T05:29:46.583Z,15.90
2022-08-21T05:32:14.461Z,15.89
2022-08-21T05:34:42.469Z,15.91
2022-08-21T05:37:12.601Z,15.94
2022-08-21T05:40:06.670Z,15.97
2022-08-21T05:42:25.520Z,16.03
2022-08-21T05:44:52.111Z,16.04
2022-08-21T05:47:19.138Z,16.11
2022-08-21T05:49:45.553Z,16.13
2022-08-21T05:52:12.290Z,16.12
2022-08-21T05:54:38.880Z,16.18
2022-08-21T05:57:05.288Z,16.27
2022-08-21T05:59:31.630Z,16.26
2022-08-21T06:02:01.195Z,16.40
2022-08-21T06:04:30.195Z,16.43
2022-08-21T06:06:56.853Z,16.50
2022-08-21T06:09:23.411Z,16.30
2022-08-21T06:11:50.018Z,16.35
2022-08-21T06:14:16.545Z,16.32
2022-08-21T06:16:43.134Z,16.40
2022-08-21T06:19:09.565Z,16.50
2022-08-21T06:21:35.911Z,16.55
2022-08-21T06:24:02.262Z,16.59
2022-08-21T06:26:29.027Z,16.62
2022-08-21T06:28:55.405Z,16.71
2022-08-21T06:31:25.423Z,16.68
2022-08-21T06:33:52.551Z,16.72
2022-08-21T06:36:21.100Z,16.77
2022-08-21T06:38:51.103Z,16.84
2022-08-21T06:41:19.307Z,16.97
2022-08-21T06:43:50.997Z,17.07
2022-08-21T06:46:17.325Z,17.11
2022-08-21T06:48:44.069Z,17.19
2022-08-21T06:51:10.520Z,17.29
2022-08-21T06:53:37.127Z,17.36
2022-08-21T06:56:04.469Z,17.46
2022-08-21T06:58:30.869Z,17.50
2022-08-21T07:01:01.036Z,17.60
2022-08-21T07:03:34.464Z,17.72
2022-08-21T07:06:01.130Z,17.78
2022-08-21T07:08:28.417Z,17.88
2022-08-21T07:10:59.643Z,18.07
2022-08-21T07:13:27.163Z,18.12
2022-08-21T07:15:53.680Z,18.25
2022-08-21T07:18:20.392Z,18.32
2022-08-21T07:20:48.011Z,18.43
2022-08-21T07:23:25.584Z,18.46
2022-08-21T07:25:52.081Z,18.56
2022-08-21T07:28:19.014Z,18.70
2022-08-21T07:30:46.124Z,18.76
2022-08-21T07:33:13.019Z,18.74
2022-08-21T07:35:40.386Z,18.87
2022-08-21T07:38:06.843Z,19.00
2022-08-21T07:40:33.270Z,19.09
2022-08-21T07:42:59.751Z,19.12
2022-08-21T07:45:26.529Z,19.18
2022-08-21T07:47:56.803Z,19.32
2022-08-21T07:50:24.508Z,19.39
2022-08-21T07:52:50.943Z,19.48
2022-08-21T07:55:20.344Z,19.56
2022-08-21T07:57:47.479Z,19.65
2022-08-21T08:00:17.479Z,19.79
2022-08-21T08:02:47.962Z,19.83
2022-08-21T08:05:14.537Z,20.05
2022-08-21T08:07:40.953Z,20.15
2022-08-21T08:10:09.348Z,20.20
2022-08-21T08:12:36.778Z,20.27
2022-08-21T08:15:06.008Z,20.34
2022-08-21T08:17:32.568Z,20.48
2022-08-21T08:19:59.410Z,20.52
2022-08-21T08:22:26.118Z,20.67
2022-08-21T08:24:53.557Z,20.82
2022-08-21T08:27:20.520Z,21.25
2022-08-21T08:29:48.005Z,21.14
2022-08-21T08:32:14.781Z,21.17
2022-08-21T08:34:41.414Z,21.30
2022-08-21T08:37:09.741Z,21.37
2022-08-21T08:39:36.956Z,21.57
2022-08-21T08:42:33.140Z,21.54
2022-08-21T08:45:01.508Z,21.55
2022-08-21T08:47:30.756Z,21.72
2022-08-21T08:50:20.552Z,21.81
2022-08-21T08:52:53.447Z,21.84
2022-08-21T08:55:27.471Z,22.04
2022-08-21T08:57:55.939Z,22.28
2022-08-21T09:00:24.722Z,23.01
2022-08-21T09:02:56.070Z,23.41
2022-08-21T09:05:29.642Z,23.75
2022-08-21T09:08:04.602Z,24.08
2022-08-21T09:10:53.408Z,24.13
2022-08-21T09:13:39.428Z,24.29
2022-08-21T09:16:31.707Z,24.28
2022-08-21T09:19:28.722Z,24.59
2022-08-21T09:22:09.758Z,25.35
2022-08-21T09:25:09.292Z,25.30
2022-08-21T09:27:35.701Z,25.54
2022-08-21T09:30:02.422Z,25.69
2022-08-21T09:32:36.711Z,26.26
2022-08-21T09:35:12.758Z,26.82
2022-08-21T09:37:53.790Z,27.62
2022-08-21T09:40:29.364Z,28.29
2022-08-21T09:42:59.258Z,28.67
2022-08-21T09:45:26.112Z,28.38
2022-08-21T09:47:52.456Z,28.18
2022-08-21T09:50:23.405Z,28.07
2022-08-21T09:52:54.140Z,28.38
2022-08-21T09:55:34.059Z,28.20
2022-08-21T09:58:02.022Z,28.29
2022-08-21T10:00:32.222Z,28.21
2022-08-21T10:03:19.317Z,27.63
2022-08-21T10:05:59.717Z,27.01
2022-08-21T10:08:28.529Z,26.48
2022-08-21T10:11:05.503Z,26.19
2022-08-21T10:13:49.221Z,25.93
2022-08-21T10:16:21.301Z,25.76
2022-08-21T10:19:04.767Z,25.58
2022-08-21T10:21:52.912Z,25.29
2022-08-21T10:24:31.389Z,25.03
2022-08-21T10:27:35.915Z,24.83
2022-08-21T10:30:16.075Z,24.82
2022-08-21T10:33:01.660Z,25.02
2022-08-21T10:35:31.428Z,25.39
2022-08-21T10:38:52.528Z,25.66
2022-08-21T10:41:48.795Z,25.78
2022-08-21T10:45:00.232Z,25.81
2022-08-21T10:47:35.834Z,25.60
2022-08-21T10:50:20.241Z,25.51
2022-08-21T10:53:02.045Z,25.67
2022-08-21T10:55:52.181Z,25.22
2022-08-21T10:58:29.040Z,25.20
2022-08-21T11:01:07.365Z,25.45
2022-08-21T11:03:47.125Z,25.48
2022-08-21T11:06:22.367Z,25.59
2022-08-21T11:09:02.959Z,25.82
2022-08-21T11:11:47.019Z,25.81
2022-08-21T11:14:31.566Z,25.72
2022-08-21T11:17:03.203Z,25.88
2022-08-21T11:19:36.204Z,25.75
2022-08-21T11:22:14.432Z,25.89
2022-08-21T11:24:52.559Z,25.76
2022-08-21T11:27:45.444Z,25.72
2022-08-21T11:30:12.956Z,25.82
2022-08-21T11:33:10.022Z,26.30
2022-08-21T11:36:17.410Z,26.55
2022-08-21T11:38:55.327Z,26.21
2022-08-21T11:41:30.118Z,25.87
2022-08-21T11:44:08.026Z,25.75
2022-08-21T11:47:00.613Z,25.48
2022-08-21T11:49:43.327Z,25.38
2022-08-21T11:52:17.744Z,25.76
2022-08-21T11:54:53.382Z,25.77
2022-08-21T11:57:59.446Z,25.72
2022-08-21T12:00:35.735Z,25.75
2022-08-21T12:03:14.358Z,25.78
2022-08-21T12:05:45.115Z,25.71
2022-08-21T12:08:15.651Z,26.17
2022-08-21T12:10:48.206Z,26.17
2022-08-21T12:13:40.659Z,25.83
2022-08-21T12:16:29.123Z,25.60
2022-08-21T12:19:30.138Z,25.49
2022-08-21T12:22:06.447Z,25.46
2022-08-21T12:24:45.918Z,25.37
2022-08-21T12:27:18.340Z,25.31
2022-08-21T12:29:50.049Z,25.22
2022-08-21T12:32:16.459Z,25.07
2022-08-21T12:34:52.123Z,24.93
2022-08-21T12:37:40.417Z,24.83
2022-08-21T12:40:22.976Z,24.78
2022-08-21T12:42:58.592Z,24.78
2022-08-21T12:45:38.051Z,24.92
2022-08-21T12:48:13.740Z,25.08
2022-08-21T12:51:10.622Z,25.38
2022-08-21T12:53:48.282Z,25.50
2022-08-21T12:56:18.623Z,25.60
2022-08-21T12:58:57.653Z,25.73
2022-08-21T13:01:32.304Z,25.81
2022-08-21T13:04:04.441Z,25.90
2022-08-21T13:06:38.784Z,26.04
2022-08-21T13:09:08.408Z,26.20
2022-08-21T13:11:35.696Z,26.25
2022-08-21T13:14:05.211Z,26.34
2022-08-21T13:16:32.676Z,26.42
2022-08-21T13:19:08.664Z,26.57
2022-08-21T13:21:43.558Z,27.19
2022-08-21T13:24:39.138Z,27.08
2022-08-21T13:27:02.427Z,27.06
2022-08-21T13:29:32.638Z,26.91
2022-08-21T13:32:02.270Z,26.64
2022-08-21T13:34:33.901Z,26.35
2022-08-21T13:37:08.502Z,26.20
2022-08-21T13:39:35.120Z,26.07
2022-08-21T13:42:06.044Z,25.99
2022-08-21T13:44:36.993Z,25.93
2022-08-21T13:47:06.225Z,25.87
2022-08-21T13:49:37.052Z,25.83
2022-08-21T13:52:04.531Z,25.74
2022-08-21T13:54:40.504Z,25.69
2022-08-21T13:57:25.152Z,25.65
2022-08-21T13:59:51.887Z,25.69
2022-08-21T14:02:21.847Z,25.74
2022-08-21T14:05:04.161Z,25.87
2022-08-21T14:07:39.835Z,26.09
2022-08-21T14:10:12.922Z,26.24
2022-08-21T14:12:44.499Z,26.37
2022-08-21T14:15:15.587Z,26.44
2022-08-21T14:17:42.514Z,26.54
2022-08-21T14:20:13.015Z,26.69
2022-08-21T14:22:39.294Z,26.70
2022-08-21T14:25:25.468Z,26.77
2022-08-21T14:28:10.126Z,26.82
2022-08-21T14:30:40.275Z,26.79
2022-08-21T14:33:12.156Z,27.07
2022-08-21T14:35:39.295Z,27.51
2022-08-21T14:38:20.536Z,27.60
2022-08-21T14:40:51.404Z,27.58
2022-08-21T14:43:19.361Z,27.50
2022-08-21T14:45:46.527Z,27.63
2022-08-21T14:48:12.960Z,27.54
2022-08-21T14:50:39.648Z,27.51
2022-08-21T14:53:11.104Z,27.35
2022-08-21T14:55:39.839Z,27.33
2022-08-21T14:58:07.393Z,27.13
2022-08-21T15:00:35.813Z,27.00
2022-08-21T15:03:03.142Z,26.77
2022-08-21T15:05:32.905Z,26.63
2022-08-21T15:07:59.622Z,26.54
2022-08-21T15:10:25.966Z,26.52
2022-08-21T15:12:52.347Z,26.54
2022-08-21T15:15:19.200Z,26.54
2022-08-21T15:17:48.344Z,26.66
2022-08-21T15:20:15.270Z,26.52
2022-08-21T15:22:41.701Z,26.44
2022-08-21T15:25:14.206Z,26.38
2022-08-21T15:27:40.735Z,26.41
2022-08-21T15:30:08.086Z,26.37
2022-08-21T15:32:34.494Z,26.25
2022-08-21T15:35:00.887Z,26.17
2022-08-21T15:37:27.291Z,26.08
2022-08-21T15:39:54.434Z,25.94
2022-08-21T15:42:21.948Z,25.86
2022-08-21T15:44:48.996Z,25.83
2022-08-21T15:47:18.955Z,25.83
2022-08-21T15:49:45.622Z,25.90
2022-08-21T15:52:13.946Z,26.20
2022-08-21T15:54:40.324Z,26.42
2022-08-21T15:57:07.038Z,26.60
2022-08-21T15:59:40.281Z,26.66
2022-08-21T16:02:13.602Z,26.66
2022-08-21T16:04:39.946Z,26.62
2022-08-21T16:07:09.519Z,26.54
2022-08-21T16:09:36.240Z,26.40
2022-08-21T16:12:04.287Z,26.32
2022-08-21T16:14:31.871Z,26.16
2022-08-21T16:16:58.864Z,26.05
2022-08-21T16:19:28.736Z,25.96
2022-08-21T16:21:55.160Z,25.86
2022-08-21T16:24:21.563Z,25.81
2022-08-21T16:26:57.968Z,25.73
2022-08-21T16:29:35.916Z,25.62
2022-08-21T16:32:04.148Z,25.54
2022-08-21T16:34:30.558Z,25.56
2022-08-21T16:36:57.373Z,25.52
2022-08-21T16:39:24.324Z,25.58
2022-08-21T16:41:51.067Z,25.70
2022-08-21T16:44:19.498Z,25.70
2022-08-21T16:46:45.993Z,25.70
2022-08-21T16:49:12.406Z,25.68
2022-08-21T16:51:38.735Z,25.68
2022-08-21T16:54:05.418Z,25.66
2022-08-21T16:56:32.172Z,25.75
2022-08-21T16:58:59.363Z,25.81
2022-08-21T17:01:30.821Z,25.82
2022-08-21T17:03:57.425Z,25.81
2022-08-21T17:06:29.077Z,25.84
2022-08-21T17:08:57.618Z,25.83
2022-08-21T17:11:37.892Z,25.88
2022-08-21T17:14:10.850Z,25.96
2022-08-21T17:16:39.837Z,25.98
2022-08-21T17:19:06.260Z,25.87
2022-08-21T17:21:33.380Z,25.73
2022-08-21T17:24:00.070Z,25.60
2022-08-21T17:26:26.528Z,25.51
2022-08-21T17:28:54.973Z,25.46
2022-08-21T17:31:22.554Z,25.39
2022-08-21T17:33:52.072Z,25.35
2022-08-21T17:36:24.614Z,25.29
2022-08-21T17:38:52.065Z,25.17
2022-08-21T17:41:19.646Z,25.15
2022-08-21T17:43:47.013Z,25.08
2022-08-21T17:46:20.660Z,24.96
2022-08-21T17:48:47.586Z,24.84
2022-08-21T17:51:14.826Z,24.69
2022-08-21T17:53:41.168Z,24.54
2022-08-21T17:56:08.074Z,24.37
2022-08-21T17:58:35.175Z,24.26
2022-08-21T18:01:02.469Z,24.15
2022-08-21T18:03:29.036Z,24.03
2022-08-21T18:05:58.825Z,23.91
2022-08-21T18:08:26.449Z,23.77
2022-08-21T18:10:53.219Z,23.63
2022-08-21T18:13:25.834Z,23.49
2022-08-21T18:15:54.088Z,23.36
2022-08-21T18:18:22.342Z,23.23
2022-08-21T18:20:49.774Z,23.10
2022-08-21T18:23:16.239Z,23.00
2022-08-21T18:25:46.323Z,22.94
2022-08-21T18:28:13.194Z,22.86
2022-08-21T18:30:42.460Z,22.77
2022-08-21T18:33:10.992Z,22.66
2022-08-21T18:35:38.111Z,22.49
2022-08-21T18:38:04.631Z,22.41
2022-08-21T18:40:33.097Z,22.31
2022-08-21T18:43:01.531Z,22.18
2022-08-21T18:45:28.157Z,22.05
2022-08-21T18:47:57.411Z,22.00
2022-08-21T18:50:27.133Z,21.92
2022-08-21T18:52:54.518Z,21.80
2022-08-21T18:55:21.588Z,21.73
2022-08-21T18:57:48.379Z,21.64
2022-08-21T19:00:18.154Z,21.57
2022-08-21T19:02:45.025Z,21.47
2022-08-21T19:05:13.905Z,21.43
2022-08-21T19:07:40.588Z,21.33
2022-08-21T19:10:27.728Z,21.24
2022-08-21T19:12:57.303Z,21.14
2022-08-21T19:15:24.091Z,21.01
2022-08-21T19:17:51.734Z,20.93
2022-08-21T19:20:26.193Z,20.87
2022-08-21T19:22:53.937Z,20.79
2022-08-21T19:25:20.347Z,20.71
2022-08-21T19:28:01.056Z,20.62
2022-08-21T19:30:27.426Z,20.54
2022-08-21T19:32:53.892Z,20.40
2022-08-21T19:35:20.492Z,20.34
2022-08-21T19:37:47.704Z,20.27
2022-08-21T19:40:15.741Z,20.23
2022-08-21T19:42:43.031Z,20.19
2022-08-21T19:45:10.458Z,20.15
2022-08-21T19:47:40.426Z,20.05
2022-08-21T19:50:17.810Z,20.01
2022-08-21T19:55:34.211Z,19.84
2022-08-21T19:58:02.048Z,19.77
2022-08-21T20:00:28.390Z,19.65
2022-08-21T20:02:54.740Z,19.60
2022-08-21T20:05:21.384Z,19.58
2022-08-21T20:07:48.106Z,19.55
2022-08-21T20:10:14.449Z,19.47
2022-08-21T20:12:40.881Z,19.45
2022-08-21T20:15:08.132Z,19.38
2022-08-21T20:17:34.571Z,19.31
2022-08-21T20:20:01.409Z,19.28
2022-08-21T20:22:28.090Z,19.28
2022-08-21T20:24:55.312Z,19.16
2022-08-21T20:27:25.101Z,19.11
2022-08-21T20:29:51.885Z,19.04
2022-08-21T20:32:18.913Z,18.99
2022-08-21T20:34:45.434Z,18.93
2022-08-21T20:37:12.508Z,18.89
2022-08-21T20:39:39.005Z,18.83
2022-08-21T20:42:09.742Z,18.81
2022-08-21T20:44:37.394Z,18.72
2022-08-21T20:47:13.568Z,18.65
2022-08-21T20:49:45.721Z,18.60
2022-08-21T20:52:15.788Z,18.54
2022-08-21T20:54:52.799Z,18.50
2022-08-21T20:57:28.260Z,18.46
2022-08-21T21:00:22.820Z,18.37
2022-08-21T21:03:12.525Z,18.31
2022-08-21T21:05:38.902Z,18.22
2022-08-21T21:08:11.975Z,18.19
2022-08-21T21:10:47.780Z,18.12
2022-08-21T21:13:21.127Z,18.08
2022-08-21T21:15:54.760Z,18.12
2022-08-21T21:18:40.872Z,18.09
2022-08-21T21:21:17.229Z,18.02
2022-08-21T21:24:11.395Z,18.02
2022-08-21T21:26:49.662Z,18.00
2022-08-21T21:29:24.269Z,17.90
2022-08-21T21:31:54.753Z,17.80
2022-08-21T21:34:22.995Z,17.78
2022-08-21T21:37:05.980Z,17.73
2022-08-21T21:39:42.429Z,17.63
2022-08-21T21:42:16.759Z,17.59
2022-08-21T21:44:50.226Z,17.52
2022-08-21T21:47:38.596Z,17.50
2022-08-21T21:50:42.815Z,17.45
2022-08-21T21:53:22.629Z,17.41
2022-08-21T21:56:06.527Z,17.37
2022-08-21T21:59:11.394Z,17.30
2022-08-21T22:01:49.225Z,17.22
2022-08-21T22:04:36.849Z,17.20
2022-08-21T22:07:29.205Z,17.13
2022-08-21T22:13:29.541Z,17.03
2022-08-21T22:16:02.868Z,16.97
2022-08-21T22:18:45.007Z,16.98
2022-08-21T22:21:19.119Z,16.94
2022-08-21T22:23:54.912Z,16.86
2022-08-21T22:26:31.033Z,16.84
2022-08-21T22:28:57.447Z,16.78
2022-08-21T22:31:28.256Z,16.81
2022-08-21T22:34:18.496Z,16.83
2022-08-21T22:37:08.831Z,16.73
2022-08-21T22:39:42.418Z,16.71
2022-08-21T22:42:12.606Z,16.67
2022-08-21T22:44:55.481Z,16.61
2022-08-21T22:47:31.516Z,16.61
2022-08-21T22:50:04.381Z,16.60
2022-08-21T22:52:44.672Z,16.61
2022-08-21T22:55:39.759Z,16.60
2022-08-21T22:58:21.024Z,16.65
2022-08-21T23:03:45.123Z,16.51
2022-08-21T23:06:46.571Z,16.46
2022-08-21T23:09:29.061Z,16.39
2022-08-21T23:12:02.267Z,16.34
2022-08-21T23:14:48.049Z,16.28
2022-08-21T23:17:35.871Z,16.23
2022-08-21T23:20:41.052Z,16.24
2022-08-21T23:23:27.523Z,16.21
2022-08-21T23:29:44.350Z,16.15
2022-08-21T23:32:35.674Z,16.19
2022-08-21T23:35:37.134Z,16.16
2022-08-21T23:38:20.020Z,16.11
2022-08-21T23:40:58.560Z,16.00
2022-08-21T23:43:49.486Z,15.97
2022-08-21T23:46:35.935Z,15.93
2022-08-21T23:49:22.561Z,15.93
2022-08-21T23:52:14.944Z,15.92
2022-08-21T23:55:01.818Z,15.87
2022-08-21T23:57:44.250Z,15.87
